createdAt,value
2018-02-24T00:01:36.910Z,35.45
2018-02-24T00:04:05.333Z,35.15
2018-02-24T00:06:34.091Z,32.83
2018-02-24T00:09:02.864Z,35.85
2018-02-24T00:11:32.379Z,33.05
2018-02-24T00:14:00.955Z,33.08
2018-02-24T00:16:30.472Z,34.55
2018-02-24T00:18:59.234Z,32.60
2018-02-24T00:21:28.766Z,34.78
2018-02-24T00:23:57.525Z,34.20
2018-02-24T00:26:26.274Z,32.65
2018-02-24T00:28:55.040Z,31.15
2018-02-24T00:31:24.007Z,36.25
2018-02-24T00:33:53.536Z,31.50
2018-02-24T00:36:22.288Z,32.13
2018-02-24T00:38:51.045Z,34.83
2018-02-24T00:41:19.620Z,33.10
2018-02-24T00:43:48.619Z,34.58
2018-02-24T00:46:17.200Z,35.45
2018-02-24T00:48:45.784Z,35.67
2018-02-24T00:51:14.343Z,35.00
2018-02-24T00:53:42.914Z,33.25
2018-02-24T00:56:13.248Z,33.22
2018-02-24T00:58:41.999Z,35.72
2018-02-24T01:01:10.759Z,35.90
2018-02-24T01:03:39.184Z,31.70
2018-02-24T01:06:08.737Z,32.85
2018-02-24T01:08:37.506Z,34.95
2018-02-24T01:11:06.268Z,35.40
2018-02-24T01:13:35.803Z,35.22
2018-02-24T01:16:04.568Z,32.10
2018-02-24T01:18:34.092Z,34.55
2018-02-24T01:21:02.687Z,37.13
2018-02-24T01:23:31.264Z,33.85
2018-02-24T01:26:00.027Z,31.20
2018-02-24T01:28:29.563Z,31.00
2018-02-24T01:30:58.325Z,32.13
2018-02-24T01:33:27.860Z,35.10
2018-02-24T01:35:56.621Z,36.00
2018-02-24T01:38:26.147Z,32.95
2018-02-24T01:40:54.905Z,34.55
2018-02-24T01:43:23.666Z,30.00
2018-02-24T01:45:52.426Z,33.45
2018-02-24T01:48:21.189Z,32.20
2018-02-24T01:50:50.708Z,31.70
2018-02-24T01:53:20.227Z,32.17
2018-02-24T01:55:48.993Z,33.67
2018-02-24T01:58:18.520Z,32.35
2018-02-24T02:00:46.958Z,36.10
2018-02-24T02:03:15.724Z,34.00
2018-02-24T02:05:44.489Z,33.95
2018-02-24T02:08:12.908Z,33.95
2018-02-24T02:10:41.682Z,34.67
2018-02-24T02:13:10.450Z,30.52
2018-02-24T02:15:39.216Z,35.10
2018-02-24T02:18:07.644Z,31.87
2018-02-24T02:20:36.417Z,34.38
2018-02-24T02:23:05.185Z,34.60
2018-02-24T02:25:33.945Z,32.50
2018-02-24T02:28:03.489Z,37.05
2018-02-24T02:30:32.262Z,35.40
2018-02-24T02:33:01.013Z,32.55
2018-02-24T02:35:29.768Z,35.20
2018-02-24T02:37:58.533Z,30.52
2018-02-24T02:40:26.987Z,35.35
2018-02-24T02:42:56.529Z,35.47
2018-02-24T02:45:25.294Z,31.15
2018-02-24T02:47:54.051Z,32.88
2018-02-24T02:50:22.816Z,33.90
2018-02-24T02:52:51.590Z,35.60
2018-02-24T02:55:20.357Z,32.58
2018-02-24T02:57:49.115Z,32.55
2018-02-24T03:00:17.875Z,34.35
2018-02-24T03:02:46.292Z,32.63
2018-02-24T03:05:15.488Z,32.97
2018-02-24T03:07:44.247Z,33.60
2018-02-24T03:10:13.067Z,35.05
2018-02-24T03:12:41.835Z,34.95
2018-02-24T03:15:10.600Z,34.35
2018-02-24T03:17:39.357Z,32.35
2018-02-24T03:20:08.121Z,36.08
2018-02-24T03:22:36.883Z,34.15
2018-02-24T03:25:05.640Z,31.95
2018-02-24T03:27:34.063Z,34.60
2018-02-24T03:30:02.830Z,33.53
2018-02-24T03:32:31.274Z,32.75
2018-02-24T03:35:00.040Z,34.67
2018-02-24T03:37:29.560Z,33.85
2018-02-24T03:39:59.078Z,33.80
2018-02-24T03:42:27.826Z,30.80
2018-02-24T03:44:56.398Z,33.78
2018-02-24T03:47:25.151Z,34.20
2018-02-24T03:49:53.726Z,34.38
2018-02-24T03:52:22.490Z,33.50
2018-02-24T03:54:52.020Z,37.10
2018-02-24T03:57:20.785Z,33.63
2018-02-24T03:59:50.312Z,35.72
2018-02-24T04:02:19.064Z,34.25
2018-02-24T04:04:47.636Z,34.38
2018-02-24T04:07:16.404Z,36.30
2018-02-24T04:09:45.164Z,34.45
2018-02-24T04:12:13.931Z,37.95
2018-02-24T04:14:43.454Z,32.65
2018-02-24T04:17:13.028Z,32.45
2018-02-24T04:19:41.791Z,33.33
2018-02-24T04:22:10.578Z,35.28
2018-02-24T04:24:39.335Z,35.53
2018-02-24T04:27:08.085Z,34.20
2018-02-24T04:29:36.855Z,37.35
2018-02-24T04:32:05.599Z,34.38
2018-02-24T04:34:34.347Z,33.67
2018-02-24T04:37:03.105Z,35.15
2018-02-24T04:39:31.856Z,33.60
2018-02-24T04:42:01.376Z,33.72
2018-02-24T04:44:30.174Z,34.78
2018-02-24T04:46:59.864Z,34.65
2018-02-24T04:49:28.726Z,33.90
2018-02-24T04:51:57.495Z,34.55
2018-02-24T04:54:26.248Z,34.92
2018-02-24T04:56:55.013Z,35.78
2018-02-24T04:59:23.783Z,34.58
2018-02-24T05:01:52.551Z,38.10
2018-02-24T05:04:21.320Z,34.13
2018-02-24T05:06:50.072Z,33.20
2018-02-24T05:09:18.843Z,35.30
2018-02-24T05:11:48.376Z,34.58
2018-02-24T05:14:17.135Z,36.65
2018-02-24T05:16:45.560Z,34.15
2018-02-24T05:19:14.404Z,37.00
2018-02-24T05:21:43.164Z,33.35
2018-02-24T05:24:11.922Z,32.63
2018-02-24T05:26:40.372Z,38.92
2018-02-24T05:29:09.911Z,33.60
2018-02-24T05:31:38.667Z,36.22
2018-02-24T05:34:08.188Z,34.90
2018-02-24T05:36:37.718Z,31.98
2018-02-24T05:39:06.830Z,36.20
2018-02-24T05:41:35.591Z,35.35
2018-02-24T05:44:04.347Z,34.50
2018-02-24T05:46:33.108Z,34.60
2018-02-24T05:49:01.869Z,32.72
2018-02-24T05:51:30.630Z,34.33
2018-02-24T05:54:00.148Z,32.03
2018-02-24T05:56:28.909Z,34.53
2018-02-24T05:58:57.671Z,31.80
2018-02-24T06:01:26.434Z,32.85
2018-02-24T06:03:55.188Z,33.53
2018-02-24T06:06:24.708Z,33.88
2018-02-24T06:08:53.459Z,34.25
2018-02-24T06:11:22.231Z,32.97
2018-02-24T06:13:50.975Z,32.08
2018-02-24T06:16:19.889Z,33.88
2018-02-24T06:18:48.655Z,32.40
2018-02-24T06:21:17.558Z,33.08
2018-02-24T06:23:46.489Z,33.85
2018-02-24T06:26:15.057Z,33.15
2018-02-24T06:28:43.827Z,34.83
2018-02-24T06:31:12.585Z,34.38
2018-02-24T06:33:41.775Z,34.38
2018-02-24T06:36:10.348Z,36.67
2018-02-24T06:38:38.917Z,35.92
2018-02-24T06:41:07.886Z,38.00
2018-02-24T06:43:36.655Z,36.00
2018-02-24T06:46:05.419Z,36.42
2018-02-24T06:48:34.947Z,36.50
2018-02-24T06:51:05.296Z,35.83
2018-02-24T06:53:34.058Z,35.20
2018-02-24T06:56:02.822Z,38.67
2018-02-24T06:58:31.252Z,36.33
2018-02-24T07:01:00.035Z,34.47
2018-02-24T07:03:28.817Z,37.17
2018-02-24T07:05:57.591Z,37.50
2018-02-24T07:08:26.164Z,37.15
2018-02-24T07:10:55.710Z,35.33
2018-02-24T07:13:24.472Z,39.70
2018-02-24T07:15:53.569Z,35.42
2018-02-24T07:18:22.334Z,37.25
2018-02-24T07:20:51.300Z,37.47
2018-02-24T07:23:20.062Z,39.65
2018-02-24T07:25:48.499Z,38.42
2018-02-24T07:28:18.034Z,36.55
2018-02-24T07:30:46.800Z,39.83
2018-02-24T07:33:16.327Z,36.65
2018-02-24T07:35:45.093Z,40.05
2018-02-24T07:38:13.860Z,35.70
2018-02-24T07:40:42.623Z,36.28
2018-02-24T07:43:11.412Z,37.22
2018-02-24T07:45:39.994Z,36.80
2018-02-24T07:48:09.564Z,40.45
2018-02-24T07:50:39.093Z,37.20
2018-02-24T07:53:07.862Z,38.17
2018-02-24T07:55:36.628Z,39.17
2018-02-24T07:58:05.402Z,42.20
2018-02-24T08:00:34.174Z,40.08
2018-02-24T08:03:02.941Z,40.33
2018-02-24T08:05:31.698Z,41.35
2018-02-24T08:08:01.360Z,41.55
2018-02-24T08:10:30.121Z,42.83
2018-02-24T08:12:58.882Z,40.80
2018-02-24T08:15:28.411Z,42.47
2018-02-24T08:17:56.985Z,42.25
2018-02-24T08:20:26.515Z,41.88
2018-02-24T08:22:55.287Z,43.15
2018-02-24T08:25:24.050Z,44.47
2018-02-24T08:27:52.476Z,44.97
2018-02-24T08:30:21.241Z,42.00
2018-02-24T08:32:50.027Z,42.58
2018-02-24T08:35:18.956Z,43.50
2018-02-24T08:37:47.712Z,42.25
2018-02-24T08:40:16.473Z,39.78
2018-02-24T08:42:45.228Z,41.70
2018-02-24T08:45:13.988Z,39.03
2018-02-24T08:47:42.748Z,38.67
2018-02-24T08:50:12.268Z,41.13
2018-02-24T08:52:41.882Z,41.72
2018-02-24T08:55:10.650Z,36.03
2018-02-24T08:57:40.176Z,36.13
2018-02-24T09:00:08.280Z,36.75
2018-02-24T09:02:37.048Z,35.78
2018-02-24T09:05:05.803Z,28.67
2018-02-24T09:07:35.448Z,31.45
2018-02-24T09:10:03.876Z,40.50
2018-02-24T09:12:32.639Z,30.00
2018-02-24T09:15:01.463Z,29.23
2018-02-24T09:17:30.211Z,36.10
2018-02-24T09:19:58.966Z,31.60
2018-02-24T09:22:28.487Z,25.40
2018-02-24T09:25:16.792Z,20.48
2018-02-24T09:27:45.572Z,10.75
2018-02-24T09:30:15.209Z,10.32
2018-02-24T09:32:47.998Z,9.50
2018-02-24T09:35:17.532Z,9.07
2018-02-24T09:37:46.303Z,8.40
2018-02-24T09:40:15.684Z,9.70
2018-02-24T09:42:44.439Z,8.35
2018-02-24T09:45:13.635Z,8.40
2018-02-24T09:47:44.368Z,8.60
2018-02-24T09:50:13.653Z,7.85
2018-02-24T09:52:55.537Z,9.02
2018-02-24T09:55:37.289Z,8.25
2018-02-24T09:58:06.153Z,8.18
2018-02-24T10:00:35.034Z,6.57
2018-02-24T10:03:03.608Z,6.40
2018-02-24T10:05:32.345Z,6.95
2018-02-24T10:08:21.957Z,7.43
2018-02-24T10:10:51.026Z,6.15
2018-02-24T10:13:19.767Z,7.30
2018-02-24T10:15:48.518Z,5.70
2018-02-24T10:18:18.137Z,6.07
2018-02-24T10:20:47.644Z,6.72
2018-02-24T10:23:16.402Z,6.20
2018-02-24T10:25:45.141Z,6.05
2018-02-24T10:28:13.945Z,6.68
2018-02-24T10:30:43.453Z,6.12
2018-02-24T10:33:12.188Z,6.30
2018-02-24T10:35:41.695Z,6.50
2018-02-24T10:38:11.211Z,6.62
2018-02-24T10:40:40.402Z,5.20
2018-02-24T10:43:09.917Z,4.80
2018-02-24T10:45:39.432Z,5.12
2018-02-24T10:48:08.189Z,4.30
2018-02-24T10:50:36.936Z,4.62
2018-02-24T10:53:05.011Z,4.35
2018-02-24T10:55:33.753Z,4.85
2018-02-24T10:58:03.265Z,4.60
2018-02-24T11:00:32.771Z,4.60
2018-02-24T11:03:02.284Z,3.53
2018-02-24T11:05:31.043Z,3.65
2018-02-24T11:07:59.789Z,3.95
2018-02-24T11:10:29.295Z,3.90
2018-02-24T11:12:58.049Z,5.20
2018-02-24T11:15:26.806Z,4.75
2018-02-24T11:17:56.349Z,4.60
2018-02-24T11:20:25.863Z,3.80
2018-02-24T11:22:54.649Z,3.35
2018-02-24T11:25:23.546Z,3.85
2018-02-24T11:27:52.300Z,3.37
2018-02-24T11:30:20.859Z,3.83
2018-02-24T11:32:49.608Z,3.25
2018-02-24T11:35:18.354Z,3.35
2018-02-24T11:37:47.091Z,4.03
2018-02-24T11:40:15.840Z,3.50
2018-02-24T11:42:44.598Z,3.90
2018-02-24T11:45:13.355Z,3.42
2018-02-24T11:47:42.867Z,3.75
2018-02-24T11:50:11.617Z,3.40
2018-02-24T11:52:40.383Z,3.75
2018-02-24T11:55:09.126Z,3.75
2018-02-24T11:57:37.880Z,3.53
2018-02-24T12:00:06.620Z,3.10
2018-02-24T12:02:35.359Z,3.15
2018-02-24T12:05:04.864Z,3.30
2018-02-24T12:07:33.604Z,4.25
2018-02-24T12:10:02.165Z,3.22
2018-02-24T12:12:32.553Z,3.85
2018-02-24T12:15:01.304Z,3.95
2018-02-24T12:17:30.608Z,3.55
2018-02-24T12:19:59.354Z,3.10
2018-02-24T12:22:28.866Z,3.12
2018-02-24T12:24:58.748Z,2.60
2018-02-24T12:27:27.532Z,3.37
2018-02-24T12:29:56.306Z,3.40
2018-02-24T12:32:25.066Z,2.97
2018-02-24T12:34:53.824Z,3.00
2018-02-24T12:37:23.679Z,3.42
2018-02-24T12:39:52.429Z,3.00
2018-02-24T12:42:21.952Z,3.20
2018-02-24T12:44:50.523Z,3.15
2018-02-24T12:47:19.856Z,3.40
2018-02-24T12:49:48.435Z,2.80
2018-02-24T12:52:17.222Z,3.80
2018-02-24T12:54:45.971Z,3.25
2018-02-24T12:57:15.484Z,3.40
2018-02-24T12:59:44.991Z,2.95
2018-02-24T13:02:14.504Z,3.67
2018-02-24T13:04:44.026Z,3.30
2018-02-24T13:07:12.766Z,3.85
2018-02-24T13:09:41.499Z,3.25
2018-02-24T13:12:10.244Z,3.37
2018-02-24T13:14:38.997Z,3.72
2018-02-24T13:17:07.404Z,3.90
2018-02-24T13:19:36.144Z,4.78
2018-02-24T13:22:04.881Z,3.37
2018-02-24T13:24:33.623Z,4.25
2018-02-24T13:27:02.380Z,3.70
2018-02-24T13:29:31.137Z,4.20
2018-02-24T13:31:59.708Z,3.25
2018-02-24T13:34:28.459Z,2.90
2018-02-24T13:36:57.387Z,4.28
2018-02-24T13:39:26.383Z,4.07
2018-02-24T13:41:55.890Z,3.58
2018-02-24T13:44:24.465Z,3.83
2018-02-24T13:46:53.044Z,3.70
2018-02-24T13:49:21.795Z,3.75
2018-02-24T13:51:51.436Z,4.03
2018-02-24T13:54:20.188Z,4.65
2018-02-24T13:56:49.024Z,4.20
2018-02-24T13:59:17.780Z,3.97
2018-02-24T14:01:48.707Z,4.20
2018-02-24T14:04:18.357Z,4.53
2018-02-24T14:12:29.573Z,4.90
2018-02-24T14:14:58.947Z,6.12
2018-02-24T14:17:28.450Z,5.10
2018-02-24T14:19:57.960Z,5.18
2018-02-24T14:22:27.513Z,5.00
2018-02-24T14:24:57.192Z,4.60
2018-02-24T14:27:26.700Z,4.80
2018-02-24T14:29:55.459Z,5.00
2018-02-24T14:32:24.228Z,5.35
2018-02-24T14:34:52.988Z,5.40
2018-02-24T14:37:21.748Z,5.28
2018-02-24T14:39:50.521Z,10.60
2018-02-24T14:42:19.264Z,6.25
2018-02-24T14:44:48.040Z,4.78
2018-02-24T14:58:42.796Z,4.87
2018-02-24T15:01:12.329Z,4.55
2018-02-24T15:03:41.079Z,5.93
2018-02-24T15:06:10.406Z,5.35
2018-02-24T15:08:38.978Z,5.57
2018-02-24T15:11:08.490Z,5.00
2018-02-24T15:13:37.244Z,5.60
2018-02-24T15:18:39.171Z,6.00
2018-02-24T15:21:09.003Z,5.40
2018-02-24T15:23:37.779Z,5.43
2018-02-24T15:26:06.966Z,6.05
2018-02-24T15:28:39.746Z,5.53
2018-02-24T15:31:08.517Z,6.45
2018-02-24T15:33:38.426Z,5.10
2018-02-24T15:36:07.834Z,5.82
2018-02-24T15:38:40.774Z,4.85
2018-02-24T15:44:02.905Z,4.93
2018-02-24T15:46:33.228Z,5.53
2018-02-24T15:49:02.127Z,5.40
2018-02-24T15:51:30.692Z,5.68
2018-02-24T15:53:59.473Z,5.28
2018-02-24T15:56:29.851Z,5.68
2018-02-24T15:58:59.533Z,5.60
2018-02-24T16:01:28.297Z,5.30
2018-02-24T16:03:57.041Z,6.12
2018-02-24T16:06:25.815Z,6.35
2018-02-24T16:08:54.576Z,7.85
2018-02-24T16:11:23.311Z,6.22
2018-02-24T16:13:52.072Z,6.30
2018-02-24T16:16:21.120Z,5.95
2018-02-24T16:18:50.059Z,6.43
2018-02-24T16:21:18.833Z,6.30
2018-02-24T16:23:47.608Z,7.07
2018-02-24T16:26:17.149Z,7.60
2018-02-24T16:28:47.493Z,6.72
2018-02-24T16:31:16.079Z,6.93
2018-02-24T16:33:44.859Z,7.85
2018-02-24T16:36:14.273Z,7.70
2018-02-24T16:38:43.045Z,7.25
2018-02-24T16:41:11.804Z,7.50
2018-02-24T16:43:40.725Z,8.57
2018-02-24T16:46:09.492Z,7.93
2018-02-24T16:48:38.812Z,7.43
2018-02-24T16:51:07.576Z,6.75
2018-02-24T16:53:36.349Z,7.80
2018-02-24T16:56:05.889Z,8.63
2018-02-24T16:58:35.454Z,7.37
2018-02-24T17:01:05.825Z,8.48
2018-02-24T17:03:34.587Z,8.27
2018-02-24T17:06:04.290Z,10.05
2018-02-24T17:08:33.841Z,9.60
2018-02-24T17:11:03.820Z,9.23
2018-02-24T17:13:38.120Z,9.27
2018-02-24T17:16:08.282Z,9.50
2018-02-24T17:18:37.653Z,9.13
2018-02-24T17:21:06.527Z,9.23
2018-02-24T17:23:36.126Z,9.38
2018-02-24T17:26:06.722Z,10.10
2018-02-24T17:28:36.304Z,9.20
2018-02-24T17:31:05.076Z,10.07
2018-02-24T17:33:34.613Z,9.80
2018-02-24T17:36:03.380Z,9.13
2018-02-24T17:38:32.728Z,9.57
2018-02-24T17:41:01.488Z,9.80
2018-02-24T17:43:30.259Z,9.65
2018-02-24T17:45:59.031Z,10.55
2018-02-24T17:48:29.081Z,10.77
2018-02-24T17:50:57.852Z,10.40
2018-02-24T17:53:31.311Z,11.40
2018-02-24T17:56:00.407Z,11.25
2018-02-24T17:58:29.193Z,12.55
2018-02-24T18:00:57.980Z,11.77
2018-02-24T18:03:28.051Z,12.73
2018-02-24T18:05:56.822Z,12.05
2018-02-24T18:08:26.369Z,13.13
2018-02-24T18:10:55.142Z,12.75
2018-02-24T18:13:24.037Z,14.35
2018-02-24T18:15:52.821Z,15.30
2018-02-24T18:18:22.205Z,13.75
2018-02-24T18:20:52.298Z,13.88
2018-02-24T18:23:21.069Z,13.95
2018-02-24T18:25:49.843Z,13.18
2018-02-24T18:28:18.628Z,14.68
2018-02-24T18:30:47.405Z,13.77
2018-02-24T18:33:16.176Z,13.93
2018-02-24T18:35:45.705Z,13.57
2018-02-24T18:38:14.474Z,12.90
2018-02-24T18:40:44.016Z,14.30
2018-02-24T18:43:12.780Z,14.93
2018-02-24T18:45:41.598Z,13.82
2018-02-24T18:48:10.337Z,14.07
2018-02-24T18:50:39.105Z,14.32
2018-02-24T18:53:07.878Z,14.60
2018-02-24T18:55:36.641Z,15.65
2018-02-24T18:58:05.420Z,13.93
2018-02-24T19:00:34.978Z,14.05
2018-02-24T19:03:03.753Z,15.25
2018-02-24T19:05:32.537Z,13.50
2018-02-24T19:08:01.143Z,14.55
2018-02-24T19:10:29.742Z,14.10
2018-02-24T19:12:58.516Z,14.75
2018-02-24T19:15:27.316Z,15.63
2018-02-24T19:17:56.104Z,15.50
2018-02-24T19:20:24.692Z,15.02
2018-02-24T19:22:53.336Z,14.87
2018-02-24T19:25:21.942Z,16.52
2018-02-24T19:27:50.797Z,15.90
2018-02-24T19:30:19.384Z,14.75
2018-02-24T19:32:48.206Z,17.23
2018-02-24T19:35:16.966Z,14.98
2018-02-24T19:37:46.097Z,14.13
2018-02-24T19:40:15.378Z,15.23
2018-02-24T19:42:44.166Z,14.40
2018-02-24T19:45:12.938Z,16.17
2018-02-24T19:47:41.713Z,14.80
2018-02-24T19:50:10.484Z,16.92
2018-02-24T19:52:40.034Z,15.55
2018-02-24T19:55:08.809Z,15.25
2018-02-24T19:57:37.694Z,16.02
2018-02-24T20:00:06.470Z,16.10
2018-02-24T20:02:35.679Z,16.55
2018-02-24T20:05:04.570Z,16.48
2018-02-24T20:07:33.333Z,14.73
2018-02-24T20:10:02.896Z,16.23
2018-02-24T20:12:32.350Z,18.52
2018-02-24T20:15:00.933Z,16.00
2018-02-24T20:17:30.479Z,17.37
2018-02-24T20:19:59.272Z,16.17
2018-02-24T20:22:28.988Z,16.73
2018-02-24T20:24:57.771Z,15.95
2018-02-24T20:27:26.655Z,14.87
2018-02-24T20:29:55.665Z,16.52
2018-02-24T20:32:24.457Z,18.20
2018-02-24T20:34:53.220Z,18.85
2018-02-24T20:37:22.005Z,15.05
2018-02-24T20:39:52.122Z,16.87
2018-02-24T20:42:21.669Z,16.17
2018-02-24T20:44:50.454Z,15.35
2018-02-24T20:47:20.161Z,16.17
2018-02-24T20:49:48.932Z,16.45
2018-02-24T20:52:18.125Z,17.15
2018-02-24T20:54:46.704Z,15.52
2018-02-24T20:57:16.240Z,15.95
2018-02-24T20:59:44.687Z,16.33
2018-02-24T21:02:14.217Z,15.02
2018-02-24T21:04:42.989Z,15.65
2018-02-24T21:07:11.590Z,15.93
2018-02-24T21:09:40.369Z,15.38
2018-02-24T21:12:08.806Z,14.15
2018-02-24T21:14:37.580Z,14.80
2018-02-24T21:17:07.190Z,16.45
2018-02-24T21:19:35.964Z,14.65
2018-02-24T21:22:04.728Z,15.60
2018-02-24T21:24:33.503Z,15.45
2018-02-24T21:27:03.033Z,15.55
2018-02-24T21:29:31.815Z,16.50
2018-02-24T21:32:00.587Z,15.13
2018-02-24T21:34:29.366Z,14.48
2018-02-24T21:36:59.449Z,14.80
2018-02-24T21:39:28.226Z,15.45
2018-02-24T21:41:57.008Z,14.27
2018-02-24T21:44:25.800Z,16.42
2018-02-24T21:46:54.255Z,14.87
2018-02-24T21:49:23.035Z,17.55
2018-02-24T21:51:52.650Z,16.83
2018-02-24T21:54:21.411Z,16.05
2018-02-24T21:56:50.782Z,15.13
2018-02-24T21:59:19.556Z,15.45
2018-02-24T22:01:48.328Z,14.98
2018-02-24T22:04:16.912Z,16.08
2018-02-24T22:06:45.696Z,16.23
2018-02-24T22:09:14.528Z,14.85
2018-02-24T22:11:43.296Z,14.25
2018-02-24T22:14:13.068Z,14.35
2018-02-24T22:16:42.608Z,14.02
2018-02-24T22:19:11.384Z,12.77
2018-02-24T22:21:40.170Z,13.05
2018-02-24T22:24:08.941Z,12.07
2018-02-24T22:26:39.178Z,11.85
2018-02-24T22:29:07.947Z,12.37
2018-02-24T22:31:37.473Z,10.60
2018-02-24T22:34:06.243Z,9.93
2018-02-24T22:36:35.779Z,10.40
2018-02-24T22:39:03.892Z,10.98
2018-02-24T22:41:32.671Z,10.40
2018-02-24T22:44:01.431Z,9.60
2018-02-24T22:46:30.229Z,10.80
2018-02-24T22:49:01.585Z,12.37
2018-02-24T22:51:31.102Z,8.10
2018-02-24T22:53:59.853Z,9.32
2018-02-24T22:56:29.376Z,8.27
2018-02-24T22:58:58.137Z,9.20
2018-02-24T23:01:27.677Z,9.63
2018-02-24T23:03:57.208Z,8.93
2018-02-24T23:06:25.967Z,8.93
2018-02-24T23:08:54.724Z,9.55
2018-02-24T23:11:24.300Z,10.20
2018-02-24T23:13:53.059Z,9.15
2018-02-24T23:16:21.812Z,8.23
2018-02-24T23:18:51.336Z,8.52
2018-02-24T23:21:20.089Z,8.25
2018-02-24T23:23:48.848Z,8.60
2018-02-24T23:26:17.610Z,8.40
2018-02-24T23:28:46.399Z,7.70
2018-02-24T23:31:15.175Z,8.15
2018-02-24T23:33:44.690Z,7.57
2018-02-24T23:36:13.441Z,8.65
2018-02-24T23:38:42.193Z,9.00
2018-02-24T23:41:10.951Z,8.98
2018-02-24T23:43:40.457Z,7.97
2018-02-24T23:46:09.222Z,7.50
2018-02-24T23:48:37.795Z,7.70
2018-02-24T23:51:06.360Z,8.15
2018-02-24T23:53:34.931Z,7.97
2018-02-24T23:56:04.142Z,7.22
2018-02-24T23:58:32.575Z,8.30
